createdAt,value
2018-05-12T00:02:15.387Z,38.70
2018-05-12T00:04:42.890Z,38.50
2018-05-12T00:07:10.382Z,38.60
2018-05-12T00:09:37.868Z,38.50
2018-05-12T00:12:05.472Z,38.50
2018-05-12T00:14:33.728Z,37.90
2018-05-12T00:17:01.986Z,37.90
2018-05-12T00:19:29.478Z,37.80
2018-05-12T00:21:57.758Z,36.90
2018-05-12T00:24:26.020Z,37.30
2018-05-12T00:26:53.550Z,37.40
2018-05-12T00:29:21.019Z,37.90
2018-05-12T00:31:50.023Z,38.20
2018-05-12T00:34:18.294Z,37.70
2018-05-12T00:36:45.796Z,37.70
2018-05-12T00:39:13.358Z,38.30
2018-05-12T00:41:40.828Z,37.90
2018-05-12T00:44:08.309Z,37.80
2018-05-12T00:46:35.906Z,37.70
2018-05-12T00:49:04.150Z,37.70
2018-05-12T00:51:31.650Z,37.80
2018-05-12T00:53:59.904Z,37.60
2018-05-12T00:56:27.468Z,37.40
2018-05-12T00:58:55.051Z,37.30
2018-05-12T01:01:23.325Z,37.30
2018-05-12T01:03:51.610Z,37.00
2018-05-12T01:06:19.138Z,37.00
2018-05-12T01:08:46.663Z,37.50
2018-05-12T01:11:14.128Z,37.50
2018-05-12T01:13:41.732Z,36.30
2018-05-12T01:16:09.161Z,37.20
2018-05-12T01:18:36.682Z,36.70
2018-05-12T01:21:04.165Z,36.40
2018-05-12T01:23:31.689Z,37.20
2018-05-12T01:25:59.191Z,37.00
2018-05-12T01:28:26.726Z,37.10
2018-05-12T01:30:54.229Z,36.20
2018-05-12T01:33:21.682Z,36.30
2018-05-12T01:35:49.969Z,36.60
2018-05-12T01:38:18.230Z,36.60
2018-05-12T01:40:45.719Z,36.60
2018-05-12T01:43:13.224Z,37.30
2018-05-12T01:45:40.710Z,36.30
2018-05-12T01:48:08.234Z,36.20
2018-05-12T01:50:35.726Z,35.90
2018-05-12T01:53:04.005Z,36.20
2018-05-12T01:55:32.322Z,36.10
2018-05-12T01:57:59.840Z,36.10
2018-05-12T02:00:28.227Z,36.10
2018-05-12T02:02:56.491Z,36.10
2018-05-12T02:05:24.720Z,35.80
2018-05-12T02:07:52.230Z,35.80
2018-05-12T02:10:20.488Z,36.10
2018-05-12T02:12:47.951Z,36.10
2018-05-12T02:15:15.470Z,35.50
2018-05-12T02:17:42.979Z,35.40
2018-05-12T02:20:11.277Z,35.90
2018-05-12T02:22:39.572Z,35.40
2018-05-12T02:25:07.091Z,35.40
2018-05-12T02:27:35.328Z,35.40
2018-05-12T02:30:02.829Z,35.40
2018-05-12T02:32:31.083Z,35.40
2018-05-12T02:34:58.567Z,35.40
2018-05-12T02:37:26.841Z,35.40
2018-05-12T02:39:55.107Z,35.40
2018-05-12T02:42:23.404Z,35.40
2018-05-12T02:44:50.949Z,35.40
2018-05-12T02:47:19.217Z,35.50
2018-05-12T02:49:46.765Z,35.40
2018-05-12T02:52:14.277Z,35.90
2018-05-12T02:54:41.823Z,35.40
2018-05-12T02:57:09.477Z,35.40
2018-05-12T02:59:36.989Z,35.40
2018-05-12T03:02:04.601Z,35.40
2018-05-12T03:04:32.098Z,35.30
2018-05-12T03:06:59.639Z,35.40
2018-05-12T03:09:27.161Z,35.30
2018-05-12T03:11:54.651Z,35.30
2018-05-12T03:14:22.198Z,35.40
2018-05-12T03:16:49.663Z,35.40
2018-05-12T03:19:17.163Z,35.20
2018-05-12T03:21:44.673Z,35.20
2018-05-12T03:24:12.185Z,35.20
2018-05-12T03:26:39.769Z,35.20
2018-05-12T03:29:08.051Z,35.30
2018-05-12T03:31:36.314Z,35.20
2018-05-12T03:34:04.581Z,35.20
2018-05-12T03:36:32.090Z,35.20
2018-05-12T03:38:59.584Z,35.70
2018-05-12T03:41:27.855Z,35.20
2018-05-12T03:43:55.334Z,35.20
2018-05-12T03:46:22.901Z,35.20
2018-05-12T03:48:50.374Z,35.80
2018-05-12T03:51:17.885Z,35.20
2018-05-12T03:53:45.385Z,35.20
2018-05-12T03:56:13.665Z,35.10
2018-05-12T03:58:41.913Z,35.10
2018-05-12T04:01:09.501Z,35.20
2018-05-12T04:03:37.778Z,34.70
2018-05-12T04:06:17.959Z,35.00
2018-05-12T04:08:57.428Z,35.00
2018-05-12T04:11:36.898Z,34.20
2018-05-12T04:14:04.416Z,34.30
2018-05-12T04:16:31.914Z,34.30
2018-05-12T04:19:00.201Z,34.40
2018-05-12T04:21:28.448Z,34.30
2018-05-12T04:23:55.935Z,34.30
2018-05-12T04:26:24.213Z,34.80
2018-05-12T04:28:52.451Z,34.20
2018-05-12T04:31:20.763Z,34.50
2018-05-12T04:33:49.043Z,34.10
2018-05-12T04:36:17.304Z,33.90
2018-05-12T04:38:45.629Z,34.40
2018-05-12T04:41:13.155Z,34.50
2018-05-12T04:43:41.436Z,35.20
2018-05-12T04:46:08.908Z,35.20
2018-05-12T04:48:36.419Z,35.20
2018-05-12T04:51:03.933Z,35.30
2018-05-12T04:53:31.426Z,36.00
2018-05-12T04:55:58.964Z,34.50
2018-05-12T04:58:26.464Z,35.40
2018-05-12T05:00:54.044Z,34.60
2018-05-12T05:03:21.534Z,36.00
2018-05-12T05:05:49.030Z,35.40
2018-05-12T05:08:16.568Z,35.40
2018-05-12T05:10:44.071Z,34.90
2018-05-12T05:13:12.403Z,35.10
2018-05-12T05:15:39.874Z,35.10
2018-05-12T05:18:07.360Z,35.40
2018-05-12T05:20:35.660Z,35.40
2018-05-12T05:23:03.191Z,35.40
2018-05-12T05:25:31.466Z,34.70
2018-05-12T05:27:59.733Z,34.70
2018-05-12T05:30:27.768Z,34.70
2018-05-12T05:32:55.238Z,35.40
2018-05-12T05:35:22.832Z,35.40
2018-05-12T05:37:51.322Z,35.50
2018-05-12T05:40:19.575Z,35.10
2018-05-12T05:42:47.120Z,35.40
2018-05-12T05:45:16.296Z,35.50
2018-05-12T05:47:43.815Z,35.20
2018-05-12T05:50:11.360Z,35.50
2018-05-12T05:52:38.816Z,35.40
2018-05-12T05:55:07.069Z,35.50
2018-05-12T05:57:34.665Z,35.50
2018-05-12T06:00:02.925Z,35.30
2018-05-12T06:02:30.511Z,35.30
2018-05-12T06:04:58.081Z,35.50
2018-05-12T06:07:25.583Z,35.30
2018-05-12T06:09:53.132Z,35.50
2018-05-12T06:12:20.684Z,35.50
2018-05-12T06:14:48.179Z,35.10
2018-05-12T06:17:15.655Z,35.50
2018-05-12T06:19:43.922Z,35.50
2018-05-12T06:22:12.198Z,35.50
2018-05-12T06:24:40.467Z,36.10
2018-05-12T06:27:08.758Z,37.40
2018-05-12T06:29:37.026Z,36.80
2018-05-12T06:32:05.273Z,36.00
2018-05-12T06:34:33.569Z,36.60
2018-05-12T06:37:01.887Z,36.30
2018-05-12T06:39:29.397Z,36.90
2018-05-12T06:41:57.007Z,36.40
2018-05-12T06:44:24.521Z,36.50
2018-05-12T06:46:52.011Z,36.60
2018-05-12T06:49:19.485Z,35.70
2018-05-12T06:51:47.120Z,36.40
2018-05-12T06:54:14.607Z,35.70
2018-05-12T06:56:42.110Z,35.60
2018-05-12T06:59:09.593Z,36.20
2018-05-12T07:01:37.895Z,36.90
2018-05-12T07:04:05.449Z,37.70
2018-05-12T07:06:33.005Z,37.60
2018-05-12T07:09:00.582Z,36.60
2018-05-12T07:11:28.102Z,36.80
2018-05-12T07:13:56.367Z,37.60
2018-05-12T07:16:23.881Z,37.60
2018-05-12T07:18:51.393Z,36.80
2018-05-12T07:21:19.661Z,36.60
2018-05-12T07:23:47.959Z,36.20
2018-05-12T07:26:15.443Z,36.30
2018-05-12T07:28:42.911Z,36.10
2018-05-12T07:31:10.436Z,35.90
2018-05-12T07:33:37.912Z,36.30
2018-05-12T07:36:05.432Z,36.20
2018-05-12T07:38:33.689Z,36.00
2018-05-12T07:41:01.203Z,35.90
2018-05-12T07:43:28.695Z,35.90
2018-05-12T07:45:56.294Z,36.00
2018-05-12T07:48:23.836Z,37.10
2018-05-12T07:50:51.327Z,36.50
2018-05-12T07:53:18.821Z,36.60
2018-05-12T07:55:46.309Z,36.40
2018-05-12T07:58:14.563Z,36.30
2018-05-12T08:00:42.061Z,36.30
2018-05-12T08:03:10.330Z,36.00
2018-05-12T08:05:38.590Z,36.10
2018-05-12T08:08:06.857Z,36.00
2018-05-12T08:10:34.347Z,36.00
2018-05-12T08:13:01.853Z,36.00
2018-05-12T08:15:29.337Z,36.00
2018-05-12T08:17:56.843Z,36.10
2018-05-12T08:20:24.353Z,36.10
2018-05-12T08:22:52.677Z,36.00
2018-05-12T08:25:20.161Z,36.00
2018-05-12T08:27:47.677Z,36.00
2018-05-12T08:30:15.203Z,36.00
2018-05-12T08:32:42.787Z,36.00
2018-05-12T08:35:10.295Z,36.10
2018-05-12T08:37:37.816Z,36.00
2018-05-12T08:40:05.294Z,36.10
2018-05-12T08:42:32.830Z,36.10
2018-05-12T08:45:00.474Z,36.40
2018-05-12T08:47:28.768Z,36.70
2018-05-12T08:49:56.270Z,36.00
2018-05-12T08:52:23.768Z,36.10
2018-05-12T08:54:52.051Z,36.20
2018-05-12T08:57:20.308Z,36.20
2018-05-12T08:59:47.837Z,36.10
2018-05-12T09:02:15.374Z,36.10
2018-05-12T09:04:42.898Z,36.10
2018-05-12T09:07:11.211Z,36.20
2018-05-12T09:09:38.656Z,36.10
2018-05-12T09:12:06.219Z,36.10
2018-05-12T09:14:33.697Z,36.10
2018-05-12T09:17:01.198Z,36.10
2018-05-12T09:19:29.479Z,36.80
2018-05-12T09:21:57.758Z,36.30
2018-05-12T09:24:26.016Z,36.30
2018-05-12T09:26:53.606Z,36.10
2018-05-12T09:29:21.881Z,36.20
2018-05-12T09:31:50.108Z,36.20
2018-05-12T09:34:17.606Z,36.20
2018-05-12T09:36:45.104Z,36.20
2018-05-12T09:39:12.599Z,36.20
2018-05-12T09:41:40.076Z,36.90
2018-05-12T09:44:07.648Z,36.10
2018-05-12T09:46:35.941Z,36.30
2018-05-12T09:49:03.481Z,36.20
2018-05-12T09:51:31.789Z,36.10
2018-05-12T09:53:59.274Z,36.10
2018-05-12T09:56:26.785Z,36.10
2018-05-12T09:58:54.284Z,36.20
2018-05-12T10:01:21.883Z,36.10
2018-05-12T10:03:50.180Z,36.20
2018-05-12T10:06:17.711Z,36.20
2018-05-12T10:08:45.188Z,36.10
2018-05-12T10:11:13.528Z,36.20
2018-05-12T10:13:41.113Z,36.10
2018-05-12T10:16:09.424Z,36.30
2018-05-12T10:18:36.925Z,36.20
2018-05-12T10:21:04.402Z,36.20
2018-05-12T10:23:32.724Z,36.20
2018-05-12T10:26:00.218Z,36.20
2018-05-12T10:28:27.796Z,36.20
2018-05-12T10:30:56.110Z,36.80
2018-05-12T10:33:23.608Z,36.20
2018-05-12T10:35:51.091Z,36.20
2018-05-12T10:38:19.372Z,36.30
2018-05-12T10:40:47.652Z,36.30
2018-05-12T10:43:15.889Z,36.20
2018-05-12T10:45:43.408Z,36.30
2018-05-12T10:48:10.886Z,36.20
2018-05-12T10:50:38.387Z,36.20
2018-05-12T10:53:05.861Z,36.20
2018-05-12T10:55:34.136Z,36.20
2018-05-12T10:58:02.405Z,36.20
2018-05-12T11:00:30.678Z,38.70
2018-05-12T11:02:58.962Z,38.50
2018-05-12T11:05:27.229Z,38.10
2018-05-12T11:07:55.485Z,37.40
2018-05-12T11:10:22.995Z,37.50
2018-05-12T11:12:50.502Z,37.40
2018-05-12T11:15:17.963Z,37.20
2018-05-12T11:17:45.551Z,36.50
2018-05-12T11:20:13.051Z,36.50
2018-05-12T11:22:40.564Z,36.50
2018-05-12T11:25:08.858Z,36.40
2018-05-12T11:27:36.396Z,36.50
2018-05-12T11:30:04.666Z,36.50
2018-05-12T11:32:32.932Z,36.40
2018-05-12T11:35:01.205Z,36.80
2018-05-12T11:37:28.696Z,36.40
2018-05-12T11:39:56.210Z,36.50
2018-05-12T11:42:23.723Z,36.40
2018-05-12T11:44:51.216Z,36.40
2018-05-12T11:47:18.711Z,36.40
2018-05-12T11:49:46.978Z,36.50
2018-05-12T11:52:15.251Z,37.10
2018-05-12T11:54:43.495Z,36.50
2018-05-12T11:57:11.125Z,36.40
2018-05-12T11:59:38.638Z,36.40
2018-05-12T12:02:06.117Z,36.40
2018-05-12T12:04:33.619Z,36.40
2018-05-12T12:07:01.088Z,36.40
2018-05-12T12:09:28.568Z,36.40
2018-05-12T12:11:56.831Z,36.50
2018-05-12T12:14:24.319Z,36.40
2018-05-12T12:16:51.861Z,36.40
2018-05-12T12:19:20.687Z,36.50
2018-05-12T12:21:48.197Z,36.40
2018-05-12T12:24:15.667Z,37.40
2018-05-12T12:26:43.226Z,36.40
2018-05-12T12:29:11.475Z,36.50
2018-05-12T12:31:39.049Z,36.40
2018-05-12T12:34:06.517Z,37.20
2018-05-12T12:36:34.785Z,39.30
2018-05-12T12:39:03.059Z,39.30
2018-05-12T12:41:30.555Z,38.40
2018-05-12T12:43:58.037Z,37.90
2018-05-12T12:46:25.596Z,38.50
2018-05-12T12:48:53.821Z,38.50
2018-05-12T12:51:22.084Z,38.10
2018-05-12T12:53:49.665Z,38.10
2018-05-12T12:56:17.184Z,38.30
2018-05-12T12:58:44.682Z,37.50
2018-05-12T13:01:12.179Z,38.20
2018-05-12T13:03:39.679Z,38.40
2018-05-12T13:06:07.923Z,38.00
2018-05-12T13:08:35.429Z,37.90
2018-05-12T13:11:02.928Z,38.20
2018-05-12T13:13:30.449Z,38.40
2018-05-12T13:15:58.031Z,38.00
2018-05-12T13:18:25.541Z,37.90
2018-05-12T13:20:54.572Z,38.40
2018-05-12T13:23:22.088Z,38.30
2018-05-12T13:25:49.673Z,38.00
2018-05-12T13:28:17.938Z,37.50
2018-05-12T13:30:46.225Z,36.50
2018-05-12T13:33:13.797Z,36.30
2018-05-12T13:35:41.305Z,36.40
2018-05-12T13:38:10.308Z,36.40
2018-05-12T13:40:37.829Z,36.30
2018-05-12T13:43:05.404Z,37.10
2018-05-12T13:45:32.938Z,36.30
2018-05-12T13:48:00.430Z,36.40
2018-05-12T13:50:27.951Z,35.70
2018-05-12T13:52:55.449Z,35.50
2018-05-12T13:55:24.519Z,36.30
2018-05-12T13:57:52.004Z,36.20
2018-05-12T14:00:19.511Z,36.40
2018-05-12T14:02:47.050Z,36.40
2018-05-12T14:05:15.348Z,36.40
2018-05-12T14:07:42.868Z,36.40
2018-05-12T14:10:11.132Z,35.70
2018-05-12T14:12:38.666Z,35.70
2018-05-12T14:15:06.181Z,35.10
2018-05-12T14:17:33.746Z,35.50
2018-05-12T14:20:01.254Z,36.40
2018-05-12T14:22:28.777Z,35.30
2018-05-12T14:24:56.277Z,35.70
2018-05-12T14:27:23.862Z,35.90
2018-05-12T14:29:52.098Z,35.30
2018-05-12T14:32:19.608Z,35.30
2018-05-12T14:34:47.096Z,35.70
2018-05-12T14:37:14.580Z,35.00
2018-05-12T14:39:42.078Z,34.60
2018-05-12T14:42:10.338Z,34.30
2018-05-12T14:44:38.642Z,34.50
2018-05-12T14:47:06.149Z,33.90
2018-05-12T14:49:33.658Z,34.20
2018-05-12T14:52:01.154Z,33.40
2018-05-12T14:54:28.678Z,33.90
2018-05-12T14:56:56.189Z,33.50
2018-05-12T14:59:23.692Z,33.90
2018-05-12T15:01:51.184Z,33.80
2018-05-12T15:04:18.714Z,33.10
2018-05-12T15:06:46.206Z,34.80
2018-05-12T15:09:13.686Z,35.00
2018-05-12T15:11:41.210Z,35.00
2018-05-12T15:14:08.697Z,34.60
2018-05-12T15:16:36.224Z,35.10
2018-05-12T15:19:03.716Z,34.50
2018-05-12T15:21:31.336Z,32.70
2018-05-12T15:23:59.605Z,32.70
2018-05-12T15:26:27.088Z,32.70
2018-05-12T15:28:54.689Z,33.00
2018-05-12T15:31:22.934Z,33.00
2018-05-12T15:33:50.491Z,33.10
2018-05-12T15:36:18.016Z,32.60
2018-05-12T15:38:45.511Z,32.00
2018-05-12T15:41:14.521Z,32.80
2018-05-12T15:43:43.045Z,32.40
2018-05-12T15:46:10.601Z,32.40
2018-05-12T15:48:38.089Z,31.30
2018-05-12T15:51:05.675Z,31.60
2018-05-12T15:53:33.184Z,30.80
2018-05-12T15:56:00.715Z,31.60
2018-05-12T15:58:28.235Z,30.70
2018-05-12T16:00:55.821Z,31.60
2018-05-12T16:03:24.210Z,31.60
2018-05-12T16:05:52.567Z,30.80
2018-05-12T16:08:20.035Z,30.80
2018-05-12T16:10:47.522Z,31.50
2018-05-12T16:13:15.038Z,32.80
2018-05-12T16:15:42.517Z,32.20
2018-05-12T16:18:10.801Z,30.00
2018-05-12T16:20:38.329Z,30.00
2018-05-12T16:23:05.898Z,30.30
2018-05-12T16:25:34.190Z,30.00
2018-05-12T16:28:01.729Z,30.00
2018-05-12T16:30:30.015Z,30.00
2018-05-12T16:32:58.304Z,29.70
2018-05-12T16:35:26.602Z,29.70
2018-05-12T16:37:54.099Z,29.70
2018-05-12T16:40:21.586Z,29.70
2018-05-12T16:42:49.874Z,29.90
2018-05-12T16:45:17.371Z,29.90
2018-05-12T16:47:44.866Z,31.30
2018-05-12T16:50:12.400Z,31.10
2018-05-12T16:52:39.853Z,31.10
2018-05-12T16:55:07.380Z,31.00
2018-05-12T16:57:34.850Z,31.70
2018-05-12T17:00:02.345Z,31.90
2018-05-12T17:02:30.007Z,31.00
2018-05-12T17:04:57.501Z,31.90
2018-05-12T17:07:25.287Z,32.80
2018-05-12T17:09:52.771Z,32.10
2018-05-12T17:12:20.371Z,32.80
2018-05-12T17:14:47.815Z,32.80
2018-05-12T17:17:16.117Z,33.10
2018-05-12T17:19:43.610Z,33.20
2018-05-12T17:22:11.078Z,33.70
2018-05-12T17:24:38.595Z,32.90
2018-05-12T17:27:06.095Z,33.10
2018-05-12T17:29:33.598Z,32.60
2018-05-12T17:32:01.270Z,33.70
2018-05-12T17:34:28.774Z,34.20
2018-05-12T17:36:56.257Z,34.30
2018-05-12T17:39:24.552Z,35.50
2018-05-12T17:41:52.131Z,35.10
2018-05-12T17:44:19.896Z,34.40
2018-05-12T17:46:47.376Z,34.20
2018-05-12T17:49:14.855Z,34.50
2018-05-12T17:51:42.462Z,34.70
2018-05-12T17:54:09.991Z,35.90
2018-05-12T17:56:38.256Z,33.70
2018-05-12T17:59:06.759Z,34.20
2018-05-12T18:01:35.018Z,34.80
2018-05-12T18:04:03.305Z,35.00
2018-05-12T18:06:31.552Z,33.80
2018-05-12T18:08:59.163Z,33.90
2018-05-12T18:11:26.853Z,34.40
2018-05-12T18:13:54.349Z,34.00
2018-05-12T18:16:21.892Z,33.00
2018-05-12T18:18:49.433Z,34.10
2018-05-12T18:21:16.973Z,32.80
2018-05-12T18:23:44.461Z,33.90
2018-05-12T18:26:11.963Z,33.30
2018-05-12T18:28:40.234Z,33.70
2018-05-12T18:31:08.497Z,34.30
2018-05-12T18:33:35.992Z,34.30
2018-05-12T18:36:03.521Z,35.40
2018-05-12T18:38:31.868Z,34.30
2018-05-12T18:40:59.346Z,34.40
2018-05-12T18:43:26.850Z,34.30
2018-05-12T18:45:54.374Z,34.60
2018-05-12T18:48:22.662Z,33.70
2018-05-12T18:50:50.917Z,34.10
2018-05-12T18:53:18.424Z,34.20
2018-05-12T18:55:45.939Z,34.20
2018-05-12T18:58:13.589Z,34.10
2018-05-12T19:00:41.015Z,34.70
2018-05-12T19:03:08.540Z,36.00
2018-05-12T19:05:36.017Z,35.60
2018-05-12T19:08:03.545Z,35.70
2018-05-12T19:10:31.074Z,35.00
2018-05-12T19:12:58.593Z,35.90
2018-05-12T19:15:26.100Z,35.50
2018-05-12T19:17:53.603Z,35.50
2018-05-12T19:20:21.126Z,36.50
2018-05-12T19:22:49.394Z,36.20
2018-05-12T19:25:17.705Z,35.50
2018-05-12T19:27:45.167Z,35.50
2018-05-12T19:30:12.682Z,36.20
2018-05-12T19:32:40.379Z,36.60
2018-05-12T19:35:08.611Z,36.60
2018-05-12T19:37:36.120Z,36.60
2018-05-12T19:40:03.666Z,36.60
2018-05-12T19:42:31.240Z,36.60
2018-05-12T19:44:58.718Z,36.60
2018-05-12T19:47:26.218Z,36.60
2018-05-12T19:49:54.471Z,37.70
2018-05-12T19:52:21.980Z,37.70
2018-05-12T19:54:49.474Z,37.60
2018-05-12T19:57:16.989Z,36.60
2018-05-12T19:59:44.479Z,36.60
2018-05-12T20:02:12.000Z,36.70
2018-05-12T20:04:39.494Z,36.70
2018-05-12T20:07:06.984Z,36.60
2018-05-12T20:09:34.546Z,37.40
2018-05-12T20:12:02.852Z,37.60
2018-05-12T20:14:30.372Z,37.60
2018-05-12T20:16:57.970Z,37.40
2018-05-12T20:19:25.455Z,36.70
2018-05-12T20:21:53.006Z,36.70
2018-05-12T20:24:20.504Z,36.60
2018-05-12T20:26:48.086Z,36.70
2018-05-12T20:29:16.356Z,39.00
2018-05-12T20:31:43.927Z,39.00
2018-05-12T20:34:12.199Z,37.00
2018-05-12T20:36:40.460Z,38.50
2018-05-12T20:39:07.937Z,38.50
2018-05-12T20:41:36.208Z,36.80
2018-05-12T20:44:04.484Z,36.70
2018-05-12T20:46:32.759Z,37.60
2018-05-12T20:49:01.016Z,36.70
2018-05-12T20:51:28.478Z,36.60
2018-05-12T20:53:56.779Z,36.70
2018-05-12T20:56:24.261Z,37.30
2018-05-12T20:58:51.784Z,37.70
2018-05-12T21:01:20.060Z,38.50
2018-05-12T21:03:48.332Z,38.50
2018-05-12T21:06:16.630Z,38.50
2018-05-12T21:08:44.127Z,38.50
2018-05-12T21:11:11.730Z,38.20
2018-05-12T21:13:39.976Z,37.80
2018-05-12T21:16:09.008Z,38.60
2018-05-12T21:18:36.484Z,38.50
2018-05-12T21:21:04.012Z,37.40
2018-05-12T21:23:32.268Z,36.50
2018-05-12T21:25:59.846Z,36.50
2018-05-12T21:28:28.107Z,36.60
2018-05-12T21:30:55.591Z,36.50
2018-05-12T21:33:23.156Z,36.50
2018-05-12T21:35:51.410Z,37.00
2018-05-12T21:38:19.674Z,36.60
2018-05-12T21:40:47.250Z,36.50
2018-05-12T21:43:15.512Z,37.00
2018-05-12T21:45:43.794Z,37.50
2018-05-12T21:48:12.041Z,36.60
2018-05-12T21:50:39.563Z,36.50
2018-05-12T21:53:07.052Z,37.10
2018-05-12T21:55:34.540Z,36.50
2018-05-12T21:58:02.017Z,37.00
2018-05-12T22:00:30.289Z,36.50
2018-05-12T22:02:58.514Z,37.40
2018-05-12T22:05:26.050Z,37.50
2018-05-12T22:07:53.584Z,37.50
2018-05-12T22:10:21.846Z,37.50
2018-05-12T22:12:50.106Z,37.60
2018-05-12T22:15:17.621Z,37.70
2018-05-12T22:17:45.140Z,38.30
2018-05-12T22:20:12.626Z,37.80
2018-05-12T22:22:40.150Z,37.20
2018-05-12T22:25:07.659Z,37.90
2018-05-12T22:27:35.200Z,37.10
2018-05-12T22:30:02.699Z,37.50
2018-05-12T22:32:30.195Z,37.10
2018-05-12T22:34:58.475Z,36.50
2018-05-12T22:37:26.743Z,36.50
2018-05-12T22:39:55.022Z,36.60
2018-05-12T22:42:23.268Z,36.60
2018-05-12T22:44:50.766Z,36.50
2018-05-12T22:47:18.314Z,37.20
2018-05-12T22:49:45.866Z,37.40
2018-05-12T22:52:14.129Z,37.30
2018-05-12T22:54:42.419Z,36.90
2018-05-12T22:57:10.697Z,37.30
2018-05-12T22:59:38.989Z,36.40
2018-05-12T23:02:06.541Z,36.40
2018-05-12T23:04:34.777Z,36.50
2018-05-12T23:07:02.263Z,36.80
2018-05-12T23:09:30.549Z,36.50
2018-05-12T23:11:58.831Z,36.50
2018-05-12T23:14:27.067Z,36.40
2018-05-12T23:16:54.552Z,36.30
2018-05-12T23:19:22.860Z,36.40
2018-05-12T23:21:50.416Z,36.40
2018-05-12T23:24:17.900Z,36.40
2018-05-12T23:26:45.384Z,36.50
2018-05-12T23:29:13.634Z,37.00
2018-05-12T23:31:41.141Z,36.30
2018-05-12T23:34:09.419Z,37.10
2018-05-12T23:36:37.697Z,37.40
2018-05-12T23:39:05.195Z,37.30
2018-05-12T23:41:32.804Z,37.60
2018-05-12T23:44:01.051Z,37.40
2018-05-12T23:46:28.660Z,37.50
2018-05-12T23:48:56.167Z,37.20
2018-05-12T23:51:23.694Z,37.40
2018-05-12T23:53:51.192Z,38.10
2018-05-12T23:56:18.714Z,38.30
2018-05-12T23:58:46.227Z,37.00
